Pine Hills, Florida
Current Conditions -  °F | °C
As of 6:53 AM on Thursday 23 Oct 2014 (Local Time) from KORL Reporting Station
Clear Clear  
Wind Chill: 64°   Ceiling: Unl
Heat Index: 64°   Visibility: 10mi
Dew Point: 58°   Wind: 5mph
Humidity: 80%   Direction: 350°N
Pressure: 29.98"   Gusts: NA
Location:  28.55°N, 81.45°W
Report Text: KORL 231053Z AUTO 35004KT 10SM CLR 18/14 A2998 RMK AO2 SLP155 T01780144
Loading
Personal Weather Stations






























Interactive Weather Map
Tropical Storm Tracking
New forecast layout! Learn more

10-Day Weather Forecast

Advertisements
Track Severe Weather on mobile